sensor_id;sensor_type;location;lat;lon;timestamp;P1;P2;P0
30342;PMS5003;17145;49.902;8.680;2024-01-11T00:02:26;13;13;
30342;PMS5003;17145;49.902;8.680;2024-01-11T00:04:53;13;11;
30342;PMS5003;17145;49.902;8.680;2024-01-11T00:07:21;11;10;
30342;PMS5003;17145;49.902;8.680;2024-01-11T00:09:48;15;11;
30342;PMS5003;17145;49.902;8.680;2024-01-11T00:12:15;14;11;
30342;PMS5003;17145;49.902;8.680;2024-01-11T00:14:43;11;10;
30342;PMS5003;17145;49.902;8.680;2024-01-11T00:17:10;12;11;
30342;PMS5003;17145;49.902;8.680;2024-01-11T00:19:38;10;10;
30342;PMS5003;17145;49.902;8.680;2024-01-11T00:22:05;11;11;
30342;PMS5003;17145;49.902;8.680;2024-01-11T00:24:33;11;9;
30342;PMS5003;17145;49.902;8.680;2024-01-11T00:27:00;14;11;
30342;PMS5003;17145;49.902;8.680;2024-01-11T00:29:27;12;11;
30342;PMS5003;17145;49.902;8.680;2024-01-11T00:31:55;12;11;
30342;PMS5003;17145;49.902;8.680;2024-01-11T00:34:22;11;9;
30342;PMS5003;17145;49.902;8.680;2024-01-11T00:36:50;19;15;
30342;PMS5003;17145;49.902;8.680;2024-01-11T00:39:18;14;12;
30342;PMS5003;17145;49.902;8.680;2024-01-11T00:41:45;12;9;
30342;PMS5003;17145;49.902;8.680;2024-01-11T00:44:12;14;9;
30342;PMS5003;17145;49.902;8.680;2024-01-11T00:46:40;12;12;
30342;PMS5003;17145;49.902;8.680;2024-01-11T00:49:07;11;9;
30342;PMS5003;17145;49.902;8.680;2024-01-11T00:51:35;15;12;
30342;PMS5003;17145;49.902;8.680;2024-01-11T00:54:03;15;14;
30342;PMS5003;17145;49.902;8.680;2024-01-11T00:56:30;11;11;
30342;PMS5003;17145;49.902;8.680;2024-01-11T00:58:57;14;11;
30342;PMS5003;17145;49.902;8.680;2024-01-11T01:01:25;12;11;
30342;PMS5003;17145;49.902;8.680;2024-01-11T01:03:52;11;11;
30342;PMS5003;17145;49.902;8.680;2024-01-11T01:06:20;12;11;
30342;PMS5003;17145;49.902;8.680;2024-01-11T01:08:47;18;12;
30342;PMS5003;17145;49.902;8.680;2024-01-11T01:11:15;12;12;
30342;PMS5003;17145;49.902;8.680;2024-01-11T01:13:42;11;11;
30342;PMS5003;17145;49.902;8.680;2024-01-11T01:16:09;15;14;
30342;PMS5003;17145;49.902;8.680;2024-01-11T01:18:37;15;15;
30342;PMS5003;17145;49.902;8.680;2024-01-11T01:21:04;18;13;
30342;PMS5003;17145;49.902;8.680;2024-01-11T01:23:31;19;14;
30342;PMS5003;17145;49.902;8.680;2024-01-11T01:25:59;15;14;
30342;PMS5003;17145;49.902;8.680;2024-01-11T01:28:27;14;14;
30342;PMS5003;17145;49.902;8.680;2024-01-11T01:30:54;15;14;
30342;PMS5003;17145;49.902;8.680;2024-01-11T01:33:22;14;12;
30342;PMS5003;17145;49.902;8.680;2024-01-11T01:35:49;17;15;
30342;PMS5003;17145;49.902;8.680;2024-01-11T01:38:16;14;12;
30342;PMS5003;17145;49.902;8.680;2024-01-11T01:40:44;14;12;
30342;PMS5003;17145;49.902;8.680;2024-01-11T01:43:11;14;12;
30342;PMS5003;17145;49.902;8.680;2024-01-11T01:45:39;14;12;
30342;PMS5003;17145;49.902;8.680;2024-01-11T01:48:06;21;14;
30342;PMS5003;17145;49.902;8.680;2024-01-11T01:50:34;17;14;
30342;PMS5003;17145;49.902;8.680;2024-01-11T01:53:02;14;14;
30342;PMS5003;17145;49.902;8.680;2024-01-11T01:55:30;18;17;
30342;PMS5003;17145;49.902;8.680;2024-01-11T01:57:58;27;20;
30342;PMS5003;17145;49.902;8.680;2024-01-11T02:00:26;23;18;
30342;PMS5003;17145;49.902;8.680;2024-01-11T02:02:54;15;14;
30342;PMS5003;17145;49.902;8.680;2024-01-11T02:05:23;17;15;
30342;PMS5003;17145;49.902;8.680;2024-01-11T02:07:51;23;20;
30342;PMS5003;17145;49.902;8.680;2024-01-11T02:10:19;36;17;
30342;PMS5003;17145;49.902;8.680;2024-01-11T02:12:47;17;15;
30342;PMS5003;17145;49.902;8.680;2024-01-11T02:15:14;17;16;
30342;PMS5003;17145;49.902;8.680;2024-01-11T02:17:42;17;16;
30342;PMS5003;17145;49.902;8.680;2024-01-11T02:20:10;20;16;
30342;PMS5003;17145;49.902;8.680;2024-01-11T02:22:39;21;17;
30342;PMS5003;17145;49.902;8.680;2024-01-11T02:25:09;29;17;
30342;PMS5003;17145;49.902;8.680;2024-01-11T02:27:45;20;17;
30342;PMS5003;17145;49.902;8.680;2024-01-11T02:30:15;17;15;
30342;PMS5003;17145;49.902;8.680;2024-01-11T02:32:43;17;14;
30342;PMS5003;17145;49.902;8.680;2024-01-11T02:35:12;22;20;
30342;PMS5003;17145;49.902;8.680;2024-01-11T02:37:40;23;18;
30342;PMS5003;17145;49.902;8.680;2024-01-11T02:40:08;20;17;
30342;PMS5003;17145;49.902;8.680;2024-01-11T02:42:36;29;26;
30342;PMS5003;17145;49.902;8.680;2024-01-11T02:45:03;24;20;
30342;PMS5003;17145;49.902;8.680;2024-01-11T02:47:31;17;17;
30342;PMS5003;17145;49.902;8.680;2024-01-11T02:49:59;24;18;
30342;PMS5003;17145;49.902;8.680;2024-01-11T02:52:27;26;21;
30342;PMS5003;17145;49.902;8.680;2024-01-11T02:54:54;26;21;
30342;PMS5003;17145;49.902;8.680;2024-01-11T02:57:22;23;20;
30342;PMS5003;17145;49.902;8.680;2024-01-11T02:59:49;42;23;
30342;PMS5003;17145;49.902;8.680;2024-01-11T03:02:18;26;19;
30342;PMS5003;17145;49.902;8.680;2024-01-11T03:04:45;36;23;
30342;PMS5003;17145;49.902;8.680;2024-01-11T03:07:12;30;27;
30342;PMS5003;17145;49.902;8.680;2024-01-11T03:09:40;27;19;
30342;PMS5003;17145;49.902;8.680;2024-01-11T03:12:08;21;20;
30342;PMS5003;17145;49.902;8.680;2024-01-11T03:14:35;23;23;
30342;PMS5003;17145;49.902;8.680;2024-01-11T03:17:03;33;27;
30342;PMS5003;17145;49.902;8.680;2024-01-11T03:19:30;29;26;
30342;PMS5003;17145;49.902;8.680;2024-01-11T03:21:58;29;25;
30342;PMS5003;17145;49.902;8.680;2024-01-11T03:24:25;41;40;
30342;PMS5003;17145;49.902;8.680;2024-01-11T03:26:52;59;47;
30342;PMS5003;17145;49.902;8.680;2024-01-11T03:29:20;23;22;
30342;PMS5003;17145;49.902;8.680;2024-01-11T03:31:48;28;25;
30342;PMS5003;17145;49.902;8.680;2024-01-11T03:34:15;62;53;
30342;PMS5003;17145;49.902;8.680;2024-01-11T03:36:42;26;25;
30342;PMS5003;17145;49.902;8.680;2024-01-11T03:39:10;23;22;
30342;PMS5003;17145;49.902;8.680;2024-01-11T03:41:39;22;20;
30342;PMS5003;17145;49.902;8.680;2024-01-11T03:44:10;31;25;
30342;PMS5003;17145;49.902;8.680;2024-01-11T03:46:38;26;25;
30342;PMS5003;17145;49.902;8.680;2024-01-11T03:49:06;23;22;
30342;PMS5003;17145;49.902;8.680;2024-01-11T03:51:33;34;26;
30342;PMS5003;17145;49.902;8.680;2024-01-11T03:54:01;19;19;
30342;PMS5003;17145;49.902;8.680;2024-01-11T03:56:29;32;22;
30342;PMS5003;17145;49.902;8.680;2024-01-11T03:58:56;28;26;
30342;PMS5003;17145;49.902;8.680;2024-01-11T04:01:24;24;23;
30342;PMS5003;17145;49.902;8.680;2024-01-11T04:03:51;31;25;
30342;PMS5003;17145;49.902;8.680;2024-01-11T04:06:19;33;24;
30342;PMS5003;17145;49.902;8.680;2024-01-11T04:08:47;31;30;
30342;PMS5003;17145;49.902;8.680;2024-01-11T04:11:14;43;20;
30342;PMS5003;17145;49.902;8.680;2024-01-11T04:13:42;34;31;
30342;PMS5003;17145;49.902;8.680;2024-01-11T04:16:09;39;37;
30342;PMS5003;17145;49.902;8.680;2024-01-11T04:18:36;33;27;
30342;PMS5003;17145;49.902;8.680;2024-01-11T04:21:04;36;31;
30342;PMS5003;17145;49.902;8.680;2024-01-11T04:23:31;39;30;
30342;PMS5003;17145;49.902;8.680;2024-01-11T04:25:59;28;27;
30342;PMS5003;17145;49.902;8.680;2024-01-11T04:28:26;52;49;
30342;PMS5003;17145;49.902;8.680;2024-01-11T04:30:53;36;25;
30342;PMS5003;17145;49.902;8.680;2024-01-11T04:33:21;40;30;
30342;PMS5003;17145;49.902;8.680;2024-01-11T04:35:48;49;33;
30342;PMS5003;17145;49.902;8.680;2024-01-11T04:38:15;48;30;
30342;PMS5003;17145;49.902;8.680;2024-01-11T04:40:43;31;26;
30342;PMS5003;17145;49.902;8.680;2024-01-11T04:43:10;27;22;
30342;PMS5003;17145;49.902;8.680;2024-01-11T04:45:38;27;22;
30342;PMS5003;17145;49.902;8.680;2024-01-11T04:48:06;28;24;
30342;PMS5003;17145;49.902;8.680;2024-01-11T04:50:33;45;27;
30342;PMS5003;17145;49.902;8.680;2024-01-11T04:53:00;27;24;
30342;PMS5003;17145;49.902;8.680;2024-01-11T04:55:28;31;25;
30342;PMS5003;17145;49.902;8.680;2024-01-11T04:57:55;33;25;
30342;PMS5003;17145;49.902;8.680;2024-01-11T05:00:22;34;30;
30342;PMS5003;17145;49.902;8.680;2024-01-11T05:02:50;42;30;
30342;PMS5003;17145;49.902;8.680;2024-01-11T05:05:18;27;25;
30342;PMS5003;17145;49.902;8.680;2024-01-11T05:07:45;33;30;
30342;PMS5003;17145;49.902;8.680;2024-01-11T05:10:13;36;28;
30342;PMS5003;17145;49.902;8.680;2024-01-11T05:12:40;33;31;
30342;PMS5003;17145;49.902;8.680;2024-01-11T05:15:07;39;28;
30342;PMS5003;17145;49.902;8.680;2024-01-11T05:17:35;28;28;
30342;PMS5003;17145;49.902;8.680;2024-01-11T05:20:03;30;28;
30342;PMS5003;17145;49.902;8.680;2024-01-11T05:22:31;49;31;
30342;PMS5003;17145;49.902;8.680;2024-01-11T05:24:59;34;30;
30342;PMS5003;17145;49.902;8.680;2024-01-11T05:27:26;45;30;
30342;PMS5003;17145;49.902;8.680;2024-01-11T05:29:55;39;28;
30342;PMS5003;17145;49.902;8.680;2024-01-11T05:32:23;37;28;
30342;PMS5003;17145;49.902;8.680;2024-01-11T05:34:51;36;30;
30342;PMS5003;17145;49.902;8.680;2024-01-11T05:37:18;46;27;
30342;PMS5003;17145;49.902;8.680;2024-01-11T05:39:45;36;28;
30342;PMS5003;17145;49.902;8.680;2024-01-11T05:42:13;30;28;
30342;PMS5003;17145;49.902;8.680;2024-01-11T05:44:40;40;34;
30342;PMS5003;17145;49.902;8.680;2024-01-11T05:47:08;57;34;
30342;PMS5003;17145;49.902;8.680;2024-01-11T05:49:36;36;30;
30342;PMS5003;17145;49.902;8.680;2024-01-11T05:52:04;40;28;
30342;PMS5003;17145;49.902;8.680;2024-01-11T05:54:31;30;27;
30342;PMS5003;17145;49.902;8.680;2024-01-11T05:56:59;31;27;
30342;PMS5003;17145;49.902;8.680;2024-01-11T05:59:26;34;31;
30342;PMS5003;17145;49.902;8.680;2024-01-11T06:01:54;28;27;
30342;PMS5003;17145;49.902;8.680;2024-01-11T06:04:21;40;37;
30342;PMS5003;17145;49.902;8.680;2024-01-11T06:06:51;28;28;
30342;PMS5003;17145;49.902;8.680;2024-01-11T06:09:18;49;27;
30342;PMS5003;17145;49.902;8.680;2024-01-11T06:11:46;33;28;
30342;PMS5003;17145;49.902;8.680;2024-01-11T06:14:13;33;27;
30342;PMS5003;17145;49.902;8.680;2024-01-11T06:16:41;30;27;
30342;PMS5003;17145;49.902;8.680;2024-01-11T06:19:08;30;27;
30342;PMS5003;17145;49.902;8.680;2024-01-11T06:21:45;55;28;
30342;PMS5003;17145;49.902;8.680;2024-01-11T06:24:12;42;34;
30342;PMS5003;17145;49.902;8.680;2024-01-11T06:26:40;48;27;
30342;PMS5003;17145;49.902;8.680;2024-01-11T06:29:07;40;31;
30342;PMS5003;17145;49.902;8.680;2024-01-11T06:31:34;34;31;
30342;PMS5003;17145;49.902;8.680;2024-01-11T06:34:02;36;30;
30342;PMS5003;17145;49.902;8.680;2024-01-11T06:36:29;45;30;
30342;PMS5003;17145;49.902;8.680;2024-01-11T06:38:57;27;25;
30342;PMS5003;17145;49.902;8.680;2024-01-11T06:41:24;39;30;
30342;PMS5003;17145;49.902;8.680;2024-01-11T06:43:52;33;28;
30342;PMS5003;17145;49.902;8.680;2024-01-11T06:46:20;54;28;
30342;PMS5003;17145;49.902;8.680;2024-01-11T06:48:48;34;30;
30342;PMS5003;17145;49.902;8.680;2024-01-11T06:51:15;36;30;
30342;PMS5003;17145;49.902;8.680;2024-01-11T06:53:44;34;30;
30342;PMS5003;17145;49.902;8.680;2024-01-11T06:56:13;36;33;
30342;PMS5003;17145;49.902;8.680;2024-01-11T06:58:42;45;33;
30342;PMS5003;17145;49.902;8.680;2024-01-11T07:01:11;34;31;
30342;PMS5003;17145;49.902;8.680;2024-01-11T07:03:38;28;27;
30342;PMS5003;17145;49.902;8.680;2024-01-11T07:06:06;37;33;
30342;PMS5003;17145;49.902;8.680;2024-01-11T07:08:34;34;33;
30342;PMS5003;17145;49.902;8.680;2024-01-11T07:11:01;33;28;
30342;PMS5003;17145;49.902;8.680;2024-01-11T07:13:29;31;28;
30342;PMS5003;17145;49.902;8.680;2024-01-11T07:15:57;49;25;
30342;PMS5003;17145;49.902;8.680;2024-01-11T07:18:24;30;27;
30342;PMS5003;17145;49.902;8.680;2024-01-11T07:20:52;30;27;
30342;PMS5003;17145;49.902;8.680;2024-01-11T07:23:22;28;24;
30342;PMS5003;17145;49.902;8.680;2024-01-11T07:25:50;34;28;
30342;PMS5003;17145;49.902;8.680;2024-01-11T07:28:17;39;34;
30342;PMS5003;17145;49.902;8.680;2024-01-11T07:30:44;30;25;
30342;PMS5003;17145;49.902;8.680;2024-01-11T07:33:12;42;30;
30342;PMS5003;17145;49.902;8.680;2024-01-11T07:35:39;33;30;
30342;PMS5003;17145;49.902;8.680;2024-01-11T07:38:07;52;28;
30342;PMS5003;17145;49.902;8.680;2024-01-11T07:40:34;46;27;
30342;PMS5003;17145;49.902;8.680;2024-01-11T07:43:01;43;28;
30342;PMS5003;17145;49.902;8.680;2024-01-11T07:45:29;30;25;
30342;PMS5003;17145;49.902;8.680;2024-01-11T07:47:56;33;30;
30342;PMS5003;17145;49.902;8.680;2024-01-11T07:50:24;31;30;
30342;PMS5003;17145;49.902;8.680;2024-01-11T07:52:51;49;28;
30342;PMS5003;17145;49.902;8.680;2024-01-11T07:55:20;36;28;
30342;PMS5003;17145;49.902;8.680;2024-01-11T07:57:47;39;30;
30342;PMS5003;17145;49.902;8.680;2024-01-11T08:00:15;46;30;
30342;PMS5003;17145;49.902;8.680;2024-01-11T08:02:43;36;30;
30342;PMS5003;17145;49.902;8.680;2024-01-11T08:05:11;37;33;
30342;PMS5003;17145;49.902;8.680;2024-01-11T08:07:38;31;25;
30342;PMS5003;17145;49.902;8.680;2024-01-11T08:10:06;45;31;
30342;PMS5003;17145;49.902;8.680;2024-01-11T08:12:35;31;31;
30342;PMS5003;17145;49.902;8.680;2024-01-11T08:15:03;40;30;
30342;PMS5003;17145;49.902;8.680;2024-01-11T08:17:31;40;31;
30342;PMS5003;17145;49.902;8.680;2024-01-11T08:19:58;36;33;
30342;PMS5003;17145;49.902;8.680;2024-01-11T08:22:25;39;30;
30342;PMS5003;17145;49.902;8.680;2024-01-11T08:24:53;34;30;
30342;PMS5003;17145;49.902;8.680;2024-01-11T08:27:20;33;27;
30342;PMS5003;17145;49.902;8.680;2024-01-11T08:29:47;46;31;
30342;PMS5003;17145;49.902;8.680;2024-01-11T08:32:15;37;31;
30342;PMS5003;17145;49.902;8.680;2024-01-11T08:34:42;58;36;
30342;PMS5003;17145;49.902;8.680;2024-01-11T08:37:10;49;33;
30342;PMS5003;17145;49.902;8.680;2024-01-11T08:39:37;42;31;
30342;PMS5003;17145;49.902;8.680;2024-01-11T08:42:05;34;28;
30342;PMS5003;17145;49.902;8.680;2024-01-11T08:44:32;30;27;
30342;PMS5003;17145;49.902;8.680;2024-01-11T08:47:00;43;33;
30342;PMS5003;17145;49.902;8.680;2024-01-11T08:49:27;42;27;
30342;PMS5003;17145;49.902;8.680;2024-01-11T08:51:55;31;28;
30342;PMS5003;17145;49.902;8.680;2024-01-11T08:54:22;34;31;
30342;PMS5003;17145;49.902;8.680;2024-01-11T08:56:49;37;31;
30342;PMS5003;17145;49.902;8.680;2024-01-11T08:59:17;33;28;
30342;PMS5003;17145;49.902;8.680;2024-01-11T09:01:44;34;30;
30342;PMS5003;17145;49.902;8.680;2024-01-11T09:04:11;33;27;
30342;PMS5003;17145;49.902;8.680;2024-01-11T09:06:39;51;33;
30342;PMS5003;17145;49.902;8.680;2024-01-11T09:09:06;37;31;
30342;PMS5003;17145;49.902;8.680;2024-01-11T09:11:34;34;30;
30342;PMS5003;17145;49.902;8.680;2024-01-11T09:14:01;34;31;
30342;PMS5003;17145;49.902;8.680;2024-01-11T09:16:29;48;33;
30342;PMS5003;17145;49.902;8.680;2024-01-11T09:18:56;40;33;
30342;PMS5003;17145;49.902;8.680;2024-01-11T09:21:24;40;31;
30342;PMS5003;17145;49.902;8.680;2024-01-11T09:23:51;37;31;
30342;PMS5003;17145;49.902;8.680;2024-01-11T09:26:19;39;31;
30342;PMS5003;17145;49.902;8.680;2024-01-11T09:28:46;51;28;
30342;PMS5003;17145;49.902;8.680;2024-01-11T09:31:13;31;30;
30342;PMS5003;17145;49.902;8.680;2024-01-11T09:33:41;34;27;
30342;PMS5003;17145;49.902;8.680;2024-01-11T09:36:09;34;27;
30342;PMS5003;17145;49.902;8.680;2024-01-11T09:38:37;36;33;
30342;PMS5003;17145;49.902;8.680;2024-01-11T09:41:06;42;31;
30342;PMS5003;17145;49.902;8.680;2024-01-11T09:43:35;46;27;
30342;PMS5003;17145;49.902;8.680;2024-01-11T09:46:03;49;33;
30342;PMS5003;17145;49.902;8.680;2024-01-11T09:48:34;48;34;
30342;PMS5003;17145;49.902;8.680;2024-01-11T09:51:03;48;34;
30342;PMS5003;17145;49.902;8.680;2024-01-11T09:53:31;33;30;
30342;PMS5003;17145;49.902;8.680;2024-01-11T09:56:00;34;33;
30342;PMS5003;17145;49.902;8.680;2024-01-11T09:58:27;31;28;
30342;PMS5003;17145;49.902;8.680;2024-01-11T10:00:56;39;30;
30342;PMS5003;17145;49.902;8.680;2024-01-11T10:03:24;34;30;
30342;PMS5003;17145;49.902;8.680;2024-01-11T10:05:53;34;30;
30342;PMS5003;17145;49.902;8.680;2024-01-11T10:08:24;33;30;
30342;PMS5003;17145;49.902;8.680;2024-01-11T10:10:52;37;31;
30342;PMS5003;17145;49.902;8.680;2024-01-11T10:13:21;33;27;
30342;PMS5003;17145;49.902;8.680;2024-01-11T10:18:31;40;31;
30342;PMS5003;17145;49.902;8.680;2024-01-11T10:20:58;36;30;
30342;PMS5003;17145;49.902;8.680;2024-01-11T10:23:26;33;28;
30342;PMS5003;17145;49.902;8.680;2024-01-11T10:25:53;55;31;
30342;PMS5003;17145;49.902;8.680;2024-01-11T10:28:22;54;36;
30342;PMS5003;17145;49.902;8.680;2024-01-11T10:30:51;52;31;
30342;PMS5003;17145;49.902;8.680;2024-01-11T10:33:19;37;31;
30342;PMS5003;17145;49.902;8.680;2024-01-11T10:35:47;42;27;
30342;PMS5003;17145;49.902;8.680;2024-01-11T10:38:15;31;27;
30342;PMS5003;17145;49.902;8.680;2024-01-11T10:40:43;27;25;
30342;PMS5003;17145;49.902;8.680;2024-01-11T10:43:12;34;30;
30342;PMS5003;17145;49.902;8.680;2024-01-11T10:45:46;31;28;
30342;PMS5003;17145;49.902;8.680;2024-01-11T10:48:15;48;33;
30342;PMS5003;17145;49.902;8.680;2024-01-11T10:50:44;58;36;
30342;PMS5003;17145;49.902;8.680;2024-01-11T10:53:17;37;31;
30342;PMS5003;17145;49.902;8.680;2024-01-11T10:55:56;33;27;
30342;PMS5003;17145;49.902;8.680;2024-01-11T10:58:26;33;30;
30342;PMS5003;17145;49.902;8.680;2024-01-11T11:00:54;34;28;
30342;PMS5003;17145;49.902;8.680;2024-01-11T11:03:23;31;28;
30342;PMS5003;17145;49.902;8.680;2024-01-11T11:05:51;39;30;
30342;PMS5003;17145;49.902;8.680;2024-01-11T11:08:20;39;33;
30342;PMS5003;17145;49.902;8.680;2024-01-11T11:10:49;54;31;
30342;PMS5003;17145;49.902;8.680;2024-01-11T11:13:21;33;28;
30342;PMS5003;17145;49.902;8.680;2024-01-11T11:15:49;46;33;
30342;PMS5003;17145;49.902;8.680;2024-01-11T11:18:18;31;28;
30342;PMS5003;17145;49.902;8.680;2024-01-11T11:20:47;37;33;
30342;PMS5003;17145;49.902;8.680;2024-01-11T11:23:15;42;31;
30342;PMS5003;17145;49.902;8.680;2024-01-11T11:25:45;42;30;
30342;PMS5003;17145;49.902;8.680;2024-01-11T11:28:14;34;30;
30342;PMS5003;17145;49.902;8.680;2024-01-11T11:30:43;45;31;
30342;PMS5003;17145;49.902;8.680;2024-01-11T11:33:19;31;31;
30342;PMS5003;17145;49.902;8.680;2024-01-11T11:35:46;42;30;
30342;PMS5003;17145;49.902;8.680;2024-01-11T11:38:17;34;30;
30342;PMS5003;17145;49.902;8.680;2024-01-11T11:40:46;34;33;
30342;PMS5003;17145;49.902;8.680;2024-01-11T11:43:15;31;27;
30342;PMS5003;17145;49.902;8.680;2024-01-11T11:45:44;34;28;
30342;PMS5003;17145;49.902;8.680;2024-01-11T11:51:01;30;27;
30342;PMS5003;17145;49.902;8.680;2024-01-11T11:53:32;33;30;
30342;PMS5003;17145;49.902;8.680;2024-01-11T11:56:00;37;28;
30342;PMS5003;17145;49.902;8.680;2024-01-11T11:58:28;36;25;
30342;PMS5003;17145;49.902;8.680;2024-01-11T12:00:57;39;28;
30342;PMS5003;17145;49.902;8.680;2024-01-11T12:03:28;43;30;
30342;PMS5003;17145;49.902;8.680;2024-01-11T12:05:57;33;28;
30342;PMS5003;17145;49.902;8.680;2024-01-11T12:08:25;39;27;
30342;PMS5003;17145;49.902;8.680;2024-01-11T12:10:52;30;27;
30342;PMS5003;17145;49.902;8.680;2024-01-11T12:13:20;28;22;
30342;PMS5003;17145;49.902;8.680;2024-01-11T12:15:48;33;27;
30342;PMS5003;17145;49.902;8.680;2024-01-11T12:18:16;27;24;
30342;PMS5003;17145;49.902;8.680;2024-01-11T12:20:44;36;28;
30342;PMS5003;17145;49.902;8.680;2024-01-11T12:23:12;36;28;
30342;PMS5003;17145;49.902;8.680;2024-01-11T12:25:40;34;30;
30342;PMS5003;17145;49.902;8.680;2024-01-11T12:28:08;31;24;
30342;PMS5003;17145;49.902;8.680;2024-01-11T12:30:36;28;24;
30342;PMS5003;17145;49.902;8.680;2024-01-11T12:33:05;31;27;
30342;PMS5003;17145;49.902;8.680;2024-01-11T12:35:33;31;25;
30342;PMS5003;17145;49.902;8.680;2024-01-11T12:38:01;46;28;
30342;PMS5003;17145;49.902;8.680;2024-01-11T12:40:31;45;30;
30342;PMS5003;17145;49.902;8.680;2024-01-11T12:42:59;30;22;
30342;PMS5003;17145;49.902;8.680;2024-01-11T12:45:27;28;25;
30342;PMS5003;17145;49.902;8.680;2024-01-11T12:47:54;27;24;
30342;PMS5003;17145;49.902;8.680;2024-01-11T12:50:22;37;24;
30342;PMS5003;17145;49.902;8.680;2024-01-11T12:55:27;34;25;
30342;PMS5003;17145;49.902;8.680;2024-01-11T13:00:31;25;22;
30342;PMS5003;17145;49.902;8.680;2024-01-11T13:02:59;37;28;
30342;PMS5003;17145;49.902;8.680;2024-01-11T13:05:26;27;22;
30342;PMS5003;17145;49.902;8.680;2024-01-11T13:07:54;27;27;
30342;PMS5003;17145;49.902;8.680;2024-01-11T13:10:21;27;24;
30342;PMS5003;17145;49.902;8.680;2024-01-11T13:12:48;42;28;
30342;PMS5003;17145;49.902;8.680;2024-01-11T13:15:16;28;25;
30342;PMS5003;17145;49.902;8.680;2024-01-11T13:17:44;48;27;
30342;PMS5003;17145;49.902;8.680;2024-01-11T13:20:11;27;24;
30342;PMS5003;17145;49.902;8.680;2024-01-11T13:22:38;28;24;
30342;PMS5003;17145;49.902;8.680;2024-01-11T13:25:06;25;22;
30342;PMS5003;17145;49.902;8.680;2024-01-11T13:27:34;25;24;
30342;PMS5003;17145;49.902;8.680;2024-01-11T13:30:01;30;27;
30342;PMS5003;17145;49.902;8.680;2024-01-11T13:32:31;34;27;
30342;PMS5003;17145;49.902;8.680;2024-01-11T13:34:58;25;22;
30342;PMS5003;17145;49.902;8.680;2024-01-11T13:37:26;36;30;
30342;PMS5003;17145;49.902;8.680;2024-01-11T13:39:53;39;25;
30342;PMS5003;17145;49.902;8.680;2024-01-11T13:42:20;25;25;
30342;PMS5003;17145;49.902;8.680;2024-01-11T13:44:48;27;21;
30342;PMS5003;17145;49.902;8.680;2024-01-11T13:47:15;27;21;
30342;PMS5003;17145;49.902;8.680;2024-01-11T13:49:43;24;21;
30342;PMS5003;17145;49.902;8.680;2024-01-11T13:52:10;30;24;
30342;PMS5003;17145;49.902;8.680;2024-01-11T13:54:38;28;25;
30342;PMS5003;17145;49.902;8.680;2024-01-11T13:57:06;34;21;
30342;PMS5003;17145;49.902;8.680;2024-01-11T13:59:34;25;22;
30342;PMS5003;17145;49.902;8.680;2024-01-11T14:02:01;25;21;
30342;PMS5003;17145;49.902;8.680;2024-01-11T14:04:29;30;24;
30342;PMS5003;17145;49.902;8.680;2024-01-11T14:06:56;40;25;
30342;PMS5003;17145;49.902;8.680;2024-01-11T14:09:23;22;21;
30342;PMS5003;17145;49.902;8.680;2024-01-11T14:11:51;25;24;
30342;PMS5003;17145;49.902;8.680;2024-01-11T14:14:18;31;24;
30342;PMS5003;17145;49.902;8.680;2024-01-11T14:16:46;25;24;
30342;PMS5003;17145;49.902;8.680;2024-01-11T14:19:14;22;21;
30342;PMS5003;17145;49.902;8.680;2024-01-11T14:21:42;34;24;
30342;PMS5003;17145;49.902;8.680;2024-01-11T14:24:09;25;22;
30342;PMS5003;17145;49.902;8.680;2024-01-11T14:26:36;42;28;
30342;PMS5003;17145;49.902;8.680;2024-01-11T14:29:04;19;19;
30342;PMS5003;17145;49.902;8.680;2024-01-11T14:31:32;43;24;
30342;PMS5003;17145;49.902;8.680;2024-01-11T14:33:59;30;25;
30342;PMS5003;17145;49.902;8.680;2024-01-11T14:36:27;45;24;
30342;PMS5003;17145;49.902;8.680;2024-01-11T14:38:54;30;27;
30342;PMS5003;17145;49.902;8.680;2024-01-11T14:41:21;28;27;
30342;PMS5003;17145;49.902;8.680;2024-01-11T14:43:49;28;25;
30342;PMS5003;17145;49.902;8.680;2024-01-11T14:46:16;24;22;
30342;PMS5003;17145;49.902;8.680;2024-01-11T14:48:44;24;24;
30342;PMS5003;17145;49.902;8.680;2024-01-11T14:51:11;24;22;
30342;PMS5003;17145;49.902;8.680;2024-01-11T14:53:38;31;27;
30342;PMS5003;17145;49.902;8.680;2024-01-11T14:56:06;25;21;
30342;PMS5003;17145;49.902;8.680;2024-01-11T14:58:34;22;21;
30342;PMS5003;17145;49.902;8.680;2024-01-11T15:01:01;24;19;
30342;PMS5003;17145;49.902;8.680;2024-01-11T15:03:29;28;21;
30342;PMS5003;17145;49.902;8.680;2024-01-11T15:05:56;27;25;
30342;PMS5003;17145;49.902;8.680;2024-01-11T15:08:23;39;24;
30342;PMS5003;17145;49.902;8.680;2024-01-11T15:10:51;30;22;
30342;PMS5003;17145;49.902;8.680;2024-01-11T15:13:19;27;21;
30342;PMS5003;17145;49.902;8.680;2024-01-11T15:15:46;28;24;
30342;PMS5003;17145;49.902;8.680;2024-01-11T15:18:14;31;27;
30342;PMS5003;17145;49.902;8.680;2024-01-11T15:20:41;39;22;
30342;PMS5003;17145;49.902;8.680;2024-01-11T15:23:08;34;24;
30342;PMS5003;17145;49.902;8.680;2024-01-11T15:25:36;39;22;
30342;PMS5003;17145;49.902;8.680;2024-01-11T15:28:03;25;24;
30342;PMS5003;17145;49.902;8.680;2024-01-11T15:30:31;24;22;
30342;PMS5003;17145;49.902;8.680;2024-01-11T15:32:58;25;21;
30342;PMS5003;17145;49.902;8.680;2024-01-11T15:35:26;34;22;
30342;PMS5003;17145;49.902;8.680;2024-01-11T15:37:53;28;22;
30342;PMS5003;17145;49.902;8.680;2024-01-11T15:40:20;22;19;
30342;PMS5003;17145;49.902;8.680;2024-01-11T15:42:48;28;22;
30342;PMS5003;17145;49.902;8.680;2024-01-11T15:45:15;31;24;
30342;PMS5003;17145;49.902;8.680;2024-01-11T15:47:42;40;24;
30342;PMS5003;17145;49.902;8.680;2024-01-11T15:50:10;33;27;
30342;PMS5003;17145;49.902;8.680;2024-01-11T15:52:38;27;22;
30342;PMS5003;17145;49.902;8.680;2024-01-11T15:55:06;27;24;
30342;PMS5003;17145;49.902;8.680;2024-01-11T15:57:34;27;22;
30342;PMS5003;17145;49.902;8.680;2024-01-11T16:00:02;27;24;
30342;PMS5003;17145;49.902;8.680;2024-01-11T16:02:30;34;24;
30342;PMS5003;17145;49.902;8.680;2024-01-11T16:04:57;31;22;
30342;PMS5003;17145;49.902;8.680;2024-01-11T16:07:25;21;21;
30342;PMS5003;17145;49.902;8.680;2024-01-11T16:09:52;25;24;
30342;PMS5003;17145;49.902;8.680;2024-01-11T16:12:19;25;21;
30342;PMS5003;17145;49.902;8.680;2024-01-11T16:14:47;19;18;
30342;PMS5003;17145;49.902;8.680;2024-01-11T16:17:14;24;19;
30342;PMS5003;17145;49.902;8.680;2024-01-11T16:19:42;36;24;
30342;PMS5003;17145;49.902;8.680;2024-01-11T16:22:09;37;22;
30342;PMS5003;17145;49.902;8.680;2024-01-11T16:24:37;25;25;
30342;PMS5003;17145;49.902;8.680;2024-01-11T16:27:04;42;25;
30342;PMS5003;17145;49.902;8.680;2024-01-11T16:29:31;24;22;
30342;PMS5003;17145;49.902;8.680;2024-01-11T16:31:59;40;21;
30342;PMS5003;17145;49.902;8.680;2024-01-11T16:34:26;27;22;